Time;durP1;ratioP1;P1;durP2;ratioP2;P2;SDS_P1;SDS_P2;PMS_P1;PMS_P2;Temp;Humidity;BMP_temperature;BMP_pressure;BME280_temperature;BME280_humidity;BME280_pressure;Samples;Min_cycle;Max_cycle;Signal;HPM_P1;HPM_P2
2021/06/09 00:02:26;;;;;;;14.13;11.32;;;14.60;99.90;;;;;;6098252;23;20346;-85
2021/06/09 00:04:54;;;;;;;12.63;10.48;;;14.60;99.90;;;;;;6104265;23;20342;-85
2021/06/09 00:07:22;;;;;;;11.65;10.45;;;14.60;99.90;;;;;;6106330;23;20018;-86
2021/06/09 00:09:50;;;;;;;12.00;9.88;;;14.50;99.90;;;;;;6100870;23;20014;-85
2021/06/09 00:12:17;;;;;;;11.57;10.38;;;14.50;99.90;;;;;;6106411;23;20029;-85
2021/06/09 00:14:45;;;;;;;15.77;10.40;;;14.50;99.90;;;;;;6096747;23;20046;-86
2021/06/09 00:17:14;;;;;;;12.32;9.20;;;14.50;99.90;;;;;;6101701;23;20026;-85
2021/06/09 00:19:42;;;;;;;12.75;9.25;;;14.40;99.90;;;;;;6106114;23;20022;-85
2021/06/09 00:22:10;;;;;;;10.88;9.77;;;14.40;99.90;;;;;;6099182;23;20458;-85
2021/06/09 00:24:38;;;;;;;11.85;9.13;;;14.40;99.90;;;;;;6070009;23;20487;-88
2021/06/09 00:27:11;;;;;;;10.65;9.45;;;14.30;99.90;;;;;;6081859;23;20022;-90
2021/06/09 00:29:40;;;;;;;11.85;10.60;;;14.20;99.90;;;;;;6070247;23;20018;-90
2021/06/09 00:32:07;;;;;;;11.07;9.93;;;14.20;99.90;;;;;;6046744;23;20466;-85
2021/06/09 00:34:35;;;;;;;11.15;9.95;;;14.30;99.90;;;;;;6022053;23;20027;-84
2021/06/09 00:37:03;;;;;;;13.18;10.95;;;14.30;99.90;;;;;;6070767;23;20018;-85
2021/06/09 00:39:31;;;;;;;11.88;10.57;;;14.30;99.90;;;;;;6070703;23;20335;-85
2021/06/09 00:41:59;;;;;;;11.77;9.30;;;14.20;99.90;;;;;;6069634;23;20030;-84
2021/06/09 00:44:27;;;;;;;14.00;10.13;;;14.10;99.90;;;;;;6070630;23;20504;-85
2021/06/09 00:46:56;;;;;;;19.85;13.20;;;14.10;99.90;;;;;;6070306;23;20030;-85
2021/06/09 00:49:24;;;;;;;12.60;11.27;;;14.00;99.90;;;;;;6045744;23;20485;-85
2021/06/09 00:51:51;;;;;;;16.05;11.20;;;14.10;99.90;;;;;;6046620;23;20021;-85
2021/06/09 00:54:19;;;;;;;13.50;10.60;;;14.10;99.90;;;;;;6070022;23;20323;-84
2021/06/09 00:56:48;;;;;;;12.05;10.80;;;14.00;99.90;;;;;;6094523;23;20026;-84
2021/06/09 00:59:16;;;;;;;10.13;9.00;;;14.00;99.90;;;;;;6046401;23;20026;-85
2021/06/09 01:01:43;;;;;;;11.05;9.88;;;14.00;99.90;;;;;;6022883;23;20026;-84
2021/06/09 01:04:11;;;;;;;10.32;9.30;;;14.00;99.90;;;;;;6104964;23;20019;-85
2021/06/09 01:06:39;;;;;;;11.30;10.18;;;13.90;99.90;;;;;;6046869;23;20026;-85
2021/06/09 01:09:07;;;;;;;13.50;11.65;;;13.90;99.90;;;;;;6103532;23;20022;-85
2021/06/09 01:11:36;;;;;;;14.07;11.02;;;13.90;99.90;;;;;;6046626;23;20019;-85
2021/06/09 01:14:04;;;;;;;10.88;9.77;;;13.90;99.90;;;;;;6070062;23;20030;-83
2021/06/09 01:16:32;;;;;;;13.95;10.43;;;13.90;99.90;;;;;;6071059;23;20022;-84
2021/06/09 01:19:00;;;;;;;15.13;12.25;;;14.00;99.90;;;;;;6069902;23;20462;-86
2021/06/09 01:21:33;;;;;;;16.60;12.13;;;14.00;99.90;;;;;;6101752;23;20033;-85
2021/06/09 01:24:01;;;;;;;11.45;9.93;;;14.00;99.90;;;;;;6102806;23;20038;-85
2021/06/09 01:26:31;;;;;;;13.93;10.82;;;14.00;99.90;;;;;;6097268;23;20027;-84
2021/06/09 01:29:00;;;;;;;13.80;11.20;;;14.00;99.90;;;;;;6077919;23;20030;-86
2021/06/09 01:31:28;;;;;;;13.07;11.20;;;14.00;99.90;;;;;;6095240;23;20023;-86
2021/06/09 01:34:04;;;;;;;10.93;9.68;;;14.00;99.90;;;;;;6068794;23;20037;-85
2021/06/09 01:36:40;;;;;;;11.15;9.40;;;14.00;99.90;;;;;;6070645;23;20029;-84
2021/06/09 01:39:14;;;;;;;11.25;9.75;;;13.90;99.90;;;;;;6045786;23;20038;-84
2021/06/09 01:41:47;;;;;;;13.63;10.27;;;13.90;99.90;;;;;;6094305;23;20026;-85
2021/06/09 01:44:16;;;;;;;14.00;10.63;;;13.90;99.90;;;;;;6070152;23;20346;-83
2021/06/09 01:46:44;;;;;;;12.68;11.07;;;13.80;99.90;;;;;;6096321;23;20026;-85
2021/06/09 01:49:13;;;;;;;12.23;10.95;;;13.80;99.90;;;;;;6102193;23;20022;-85
2021/06/09 01:51:42;;;;;;;11.02;9.43;;;13.80;99.90;;;;;;6105472;23;20018;-84
2021/06/09 01:54:10;;;;;;;13.98;10.88;;;13.70;99.90;;;;;;6098881;23;20025;-84
2021/06/09 01:56:39;;;;;;;12.02;10.40;;;13.60;99.90;;;;;;6069349;23;20037;-84
2021/06/09 01:59:15;;;;;;;11.63;9.98;;;13.60;99.90;;;;;;6104965;23;20041;-86
2021/06/09 02:01:44;;;;;;;10.88;9.75;;;13.60;99.90;;;;;;6045901;23;20030;-85
2021/06/09 02:04:13;;;;;;;11.82;10.13;;;13.60;99.90;;;;;;6069893;23;20342;-85
2021/06/09 02:06:43;;;;;;;15.95;10.45;;;13.60;99.90;;;;;;6096260;23;20029;-84
2021/06/09 02:09:12;;;;;;;10.60;9.15;;;13.60;99.90;;;;;;6077248;23;20026;-83
2021/06/09 02:11:42;;;;;;;14.40;12.93;;;13.60;99.90;;;;;;6105340;23;20026;-86
2021/06/09 02:14:11;;;;;;;10.80;9.70;;;13.60;99.90;;;;;;6093587;23;20023;-85
2021/06/09 02:16:42;;;;;;;10.18;8.60;;;13.60;99.90;;;;;;6067806;23;20023;-84
2021/06/09 02:19:10;;;;;;;14.73;11.40;;;13.60;99.90;;;;;;6104731;23;20493;-88
2021/06/09 02:21:41;;;;;;;15.85;10.57;;;13.50;99.90;;;;;;6098935;23;20354;-84
2021/06/09 02:24:11;;;;;;;12.60;10.18;;;13.50;99.90;;;;;;6069481;23;20473;-84
2021/06/09 02:26:40;;;;;;;13.90;10.35;;;13.50;99.90;;;;;;6071068;23;20030;-84
2021/06/09 02:29:11;;;;;;;11.57;9.60;;;13.50;99.90;;;;;;6102618;23;20489;-85
2021/06/09 02:31:50;;;;;;;13.23;12.00;;;13.50;99.90;;;;;;6070035;23;20030;-85
2021/06/09 02:34:20;;;;;;;13.95;11.85;;;13.50;99.90;;;;;;6068588;23;20479;-85
2021/06/09 02:36:53;;;;;;;12.88;11.07;;;13.50;99.90;;;;;;6103385;23;20033;-85
2021/06/09 02:39:23;;;;;;;12.88;10.23;;;13.50;99.90;;;;;;6105211;23;20022;-85
2021/06/09 02:41:51;;;;;;;13.63;12.20;;;13.50;99.90;;;;;;6068890;23;20031;-84
2021/06/09 02:44:19;;;;;;;13.60;10.75;;;13.60;99.90;;;;;;6104941;23;20029;-85
2021/06/09 02:46:52;;;;;;;12.63;10.68;;;13.60;99.90;;;;;;6095447;23;20022;-85
2021/06/09 02:49:24;;;;;;;14.57;11.85;;;13.50;99.90;;;;;;6068870;23;20033;-85
2021/06/09 02:52:10;;;;;;;12.63;11.32;;;13.50;99.90;;;;;;6105177;23;20025;-86
2021/06/09 02:54:41;;;;;;;13.63;10.40;;;13.50;99.90;;;;;;6094250;23;20022;-84
2021/06/09 02:57:31;;;;;;;12.90;11.50;;;13.50;99.90;;;;;;6102187;23;20103;-85
2021/06/09 03:00:12;;;;;;;10.50;9.32;;;13.50;99.90;;;;;;6022140;23;20383;-84
2021/06/09 03:02:55;;;;;;;11.35;9.38;;;13.50;99.90;;;;;;6045218;23;20053;-84
2021/06/09 03:05:38;;;;;;;13.82;12.18;;;13.40;99.90;;;;;;6100778;23;20334;-84
2021/06/09 03:08:32;;;;;;;12.63;10.85;;;13.30;99.90;;;;;;6105573;23;20026;-84
2021/06/09 03:11:27;;;;;;;13.52;10.88;;;13.20;99.90;;;;;;6069083;23;20449;-85
2021/06/09 03:15:09;;;;;;;12.85;11.40;;;13.10;99.90;;;;;;6068375;23;20022;-85
2021/06/09 03:17:10;;;;;;;13.95;12.48;;;13.10;99.90;;;;;;6096440;23;20351;-85
2021/06/09 03:19:53;;;;;;;18.08;12.75;;;13.20;99.90;;;;;;6104514;23;20030;-85
2021/06/09 03:23:02;;;;;;;13.95;11.85;;;13.30;99.90;;;;;;6097100;23;20031;-86
2021/06/09 03:25:36;;;;;;;14.88;10.65;;;13.30;99.90;;;;;;6083001;23;20034;-86
2021/06/09 03:28:15;;;;;;;13.05;11.43;;;13.40;99.90;;;;;;6079358;23;20014;-86
2021/06/09 03:30:50;;;;;;;18.02;12.35;;;13.40;99.90;;;;;;6067760;23;20099;-86
2021/06/09 03:33:23;;;;;;;13.85;11.57;;;13.40;99.90;;;;;;6100559;23;20022;-86
2021/06/09 03:36:19;;;;;;;16.77;12.60;;;13.40;99.90;;;;;;6104267;23;20014;-87
2021/06/09 03:38:53;;;;;;;13.00;11.70;;;13.40;99.90;;;;;;6092016;23;20574;-87
2021/06/09 03:41:25;;;;;;;14.38;12.45;;;13.40;99.90;;;;;;6100454;23;20033;-86
2021/06/09 03:43:54;;;;;;;15.38;11.68;;;13.30;99.90;;;;;;6104569;23;20022;-86
2021/06/09 03:46:23;;;;;;;13.95;11.43;;;13.30;99.90;;;;;;6095533;23;20027;-87
2021/06/09 03:48:54;;;;;;;13.27;10.32;;;13.30;99.90;;;;;;6093286;23;20073;-85
2021/06/09 03:51:24;;;;;;;15.60;11.20;;;13.30;99.90;;;;;;6104922;23;20014;-86
2021/06/09 03:53:56;;;;;;;19.60;14.20;;;13.40;99.90;;;;;;6098893;23;20765;-86
2021/06/09 03:56:26;;;;;;;17.15;12.57;;;13.40;99.90;;;;;;6069501;23;20019;-86
2021/06/09 03:58:56;;;;;;;23.15;13.65;;;13.40;99.90;;;;;;6093409;23;20023;-85
2021/06/09 04:01:32;;;;;;;13.88;12.32;;;13.40;99.90;;;;;;6068206;23;20046;-86
2021/06/09 04:04:03;;;;;;;17.67;11.18;;;13.40;99.90;;;;;;6068662;23;20018;-86
2021/06/09 04:06:32;;;;;;;13.18;10.93;;;13.40;99.90;;;;;;6095969;23;20042;-86
2021/06/09 04:09:01;;;;;;;13.77;11.90;;;13.40;99.90;;;;;;6102844;23;20034;-85
2021/06/09 04:11:33;;;;;;;14.93;10.85;;;13.40;99.90;;;;;;6080049;23;20458;-87
2021/06/09 04:14:01;;;;;;;13.50;10.85;;;13.40;99.90;;;;;;6044494;23;20354;-85
2021/06/09 04:16:34;;;;;;;16.35;11.40;;;13.40;99.90;;;;;;6069507;23;20038;-86
2021/06/09 04:19:07;;;;;;;15.95;11.23;;;13.40;99.90;;;;;;6068634;23;20034;-86
2021/06/09 04:21:35;;;;;;;;;;;13.60;99.90;;;;;;6100941;23;20029;-87
2021/06/09 04:24:03;;;;;;;17.02;11.57;;;13.70;99.90;;;;;;6064498;23;19941;-86
2021/06/09 04:26:33;;;;;;;13.07;10.48;;;13.80;99.90;;;;;;6067713;23;20026;-86
2021/06/09 04:29:02;;;;;;;21.67;12.10;;;13.90;99.90;;;;;;6065271;23;20031;-86
2021/06/09 04:31:32;;;;;;;21.65;11.95;;;14.00;99.90;;;;;;6073805;23;20022;-87
2021/06/09 04:34:01;;;;;;;21.35;11.90;;;14.00;99.90;;;;;;6067124;23;20351;-86
2021/06/09 04:36:29;;;;;;;21.30;11.80;;;14.00;99.90;;;;;;6075887;23;20023;-91
2021/06/09 04:38:57;;;;;;;19.30;11.38;;;14.00;99.90;;;;;;6042566;23;20023;-91
2021/06/09 04:41:28;;;;;;;16.63;12.57;;;14.00;99.90;;;;;;6096503;23;20022;-91
2021/06/09 04:43:56;;;;;;;17.15;11.00;;;14.10;99.90;;;;;;6042478;23;20019;-90
2021/06/09 04:46:24;;;;;;;18.80;9.98;;;14.30;99.90;;;;;;6064519;23;20019;-85
2021/06/09 04:49:05;;;;;;;15.93;10.32;;;14.50;99.90;;;;;;6063173;23;20015;-84
2021/06/09 04:51:37;;;;;;;14.98;11.75;;;14.60;99.90;;;;;;6064982;23;20022;-83
2021/06/09 04:54:06;;;;;;;15.55;10.52;;;14.70;99.90;;;;;;6040313;23;20027;-82
2021/06/09 04:56:37;;;;;;;19.15;11.70;;;14.80;99.90;;;;;;6075792;23;20025;-87
2021/06/09 04:59:07;;;;;;;15.43;12.25;;;14.80;99.90;;;;;;6062824;23;20084;-84
2021/06/09 05:01:38;;;;;;;14.18;10.55;;;15.00;99.90;;;;;;6040644;23;20049;-86
2021/06/09 05:04:06;;;;;;;18.08;11.02;;;15.20;99.90;;;;;;6075557;23;20029;-86
2021/06/09 05:06:35;;;;;;;13.38;11.35;;;15.60;99.90;;;;;;6040813;23;20031;-86
2021/06/09 05:09:05;;;;;;;15.75;9.90;;;15.80;99.90;;;;;;6064515;23;20041;-86
2021/06/09 05:12:03;;;;;;;16.55;11.05;;;16.00;99.90;;;;;;6064939;23;20042;-86
2021/06/09 05:14:47;;;;;;;10.65;9.48;;;16.20;99.90;;;;;;6063764;23;20027;-85
2021/06/09 05:17:19;;;;;;;14.48;9.90;;;16.30;99.90;;;;;;6071788;23;20758;-85
2021/06/09 05:19:50;;;;;;;14.15;11.13;;;16.20;99.90;;;;;;6063313;23;20022;-87
2021/06/09 05:22:26;;;;;;;12.13;10.93;;;16.20;99.90;;;;;;6064400;23;20061;-85
2021/06/09 05:24:55;;;;;;;12.88;9.60;;;16.20;99.90;;;;;;6064462;23;20451;-84
2021/06/09 05:27:25;;;;;;;12.57;10.23;;;16.20;99.90;;;;;;6066146;23;20019;-84
2021/06/09 05:29:53;;;;;;;13.30;8.65;;;16.20;99.90;;;;;;6067763;23;20030;-79
2021/06/09 05:32:21;;;;;;;15.75;11.30;;;16.30;99.90;;;;;;6062543;23;20047;-79
2021/06/09 05:34:51;;;;;;;14.13;10.32;;;16.20;99.90;;;;;;6062483;23;20366;-77
2021/06/09 05:37:19;;;;;;;27.35;12.93;;;16.20;99.90;;;;;;6063348;23;20030;-79
2021/06/09 05:39:47;;;;;;;20.95;11.38;;;16.10;99.90;;;;;;6072721;23;20339;-77
2021/06/09 05:42:15;;;;;;;14.65;12.15;;;16.10;99.90;;;;;;6062021;23;20043;-78
2021/06/09 05:44:49;;;;;;;13.00;11.38;;;16.00;99.90;;;;;;6038155;23;20015;-78
2021/06/09 05:47:17;;;;;;;15.95;11.30;;;16.10;99.90;;;;;;6074360;23;20014;-78
2021/06/09 05:49:45;;;;;;;11.43;9.93;;;16.10;99.90;;;;;;6067040;23;20031;-78
2021/06/09 05:52:13;;;;;;;17.20;10.73;;;16.20;99.90;;;;;;6074254;23;20029;-78
2021/06/09 05:54:42;;;;;;;15.65;12.32;;;16.30;99.90;;;;;;6061759;23;20355;-79
2021/06/09 05:57:11;;;;;;;14.50;12.10;;;16.50;99.90;;;;;;6064494;23;20441;-78
2021/06/09 05:59:40;;;;;;;14.82;12.05;;;16.60;99.90;;;;;;6073834;23;20022;-79
2021/06/09 06:02:08;;;;;;;10.38;9.23;;;16.60;99.90;;;;;;6063302;23;20027;-79
2021/06/09 06:04:37;;;;;;;13.98;9.75;;;16.70;99.90;;;;;;6071423;23;20015;-81
2021/06/09 06:07:05;;;;;;;15.30;9.93;;;16.60;99.90;;;;;;6096077;23;20019;-79
2021/06/09 06:09:33;;;;;;;14.10;9.90;;;16.80;99.90;;;;;;6061920;23;20459;-79
2021/06/09 06:12:03;;;;;;;12.40;9.95;;;16.80;99.90;;;;;;6073459;23;20030;-79
2021/06/09 06:14:31;;;;;;;10.88;9.77;;;16.90;99.90;;;;;;6061669;23;20177;-79
2021/06/09 06:16:59;;;;;;;12.18;7.68;;;16.80;99.90;;;;;;6084765;23;20030;-79
2021/06/09 06:19:35;;;;;;;13.77;9.27;;;16.90;99.90;;;;;;6071841;23;20030;-78
2021/06/09 06:22:12;;;;;;;11.07;9.98;;;16.90;99.90;;;;;;6062777;23;20331;-79
2021/06/09 06:24:42;;;;;;;12.63;10.73;;;17.00;99.90;;;;;;6066382;23;20027;-79
2021/06/09 06:27:12;;;;;;;14.45;12.48;;;17.20;99.90;;;;;;6062189;23;20018;-79
2021/06/09 06:29:41;;;;;;;13.95;10.45;;;17.20;99.90;;;;;;6068337;23;20026;-80
2021/06/09 06:32:12;;;;;;;10.90;8.13;;;17.30;99.90;;;;;;6061808;23;20030;-81
2021/06/09 06:34:49;;;;;;;11.90;9.50;;;17.40;99.90;;;;;;6062617;23;20034;-79
2021/06/09 06:37:20;;;;;;;12.10;10.65;;;17.50;99.90;;;;;;6061415;23;20030;-80
2021/06/09 06:39:52;;;;;;;12.10;10.73;;;17.70;99.90;;;;;;6038714;23;20030;-79
2021/06/09 06:42:20;;;;;;;15.80;9.30;;;17.70;99.90;;;;;;6064602;23;20363;-81
2021/06/09 06:44:48;;;;;;;10.98;9.63;;;17.70;99.90;;;;;;6060760;23;20026;-80
2021/06/09 06:47:18;;;;;;;9.63;8.40;;;17.80;99.90;;;;;;6073723;23;20018;-80
2021/06/09 06:49:48;;;;;;;10.93;9.77;;;18.00;99.90;;;;;;6068209;23;20058;-79
2021/06/09 06:52:16;;;;;;;9.55;8.15;;;18.20;99.90;;;;;;6063971;23;20498;-80
2021/06/09 06:54:43;;;;;;;8.55;7.15;;;18.30;99.90;;;;;;6063979;23;20034;-80
2021/06/09 06:57:12;;;;;;;9.55;8.55;;;18.30;99.90;;;;;;6072471;23;20442;-80
2021/06/09 06:59:40;;;;;;;11.90;7.97;;;18.30;99.90;;;;;;6057576;23;20022;-79
2021/06/09 07:02:13;;;;;;;12.88;9.13;;;18.50;99.90;;;;;;6055283;23;20034;-80
2021/06/09 07:04:41;;;;;;;10.57;9.52;;;18.60;99.90;;;;;;6056694;23;20019;-79
2021/06/09 07:07:09;;;;;;;13.85;9.88;;;19.00;99.90;;;;;;6072558;23;20335;-79
2021/06/09 07:09:40;;;;;;;10.40;7.85;;;20.10;99.90;;;;;;6066723;23;20240;-79
2021/06/09 07:12:12;;;;;;;8.05;6.97;;;20.50;99.90;;;;;;6059039;23;20019;-80
2021/06/09 07:14:43;;;;;;;10.07;8.43;;;20.60;99.90;;;;;;6060040;23;20023;-80
2021/06/09 07:17:12;;;;;;;9.70;8.63;;;22.00;99.90;;;;;;6061962;23;20037;-79
2021/06/09 07:19:42;;;;;;;17.20;9.30;;;22.80;98.90;;;;;;6073269;23;20021;-80
2021/06/09 07:22:15;;;;;;;10.43;9.45;;;23.10;98.20;;;;;;6060980;23;20075;-79
2021/06/09 07:24:43;;;;;;;9.90;8.00;;;23.90;97.60;;;;;;6083418;23;20488;-78
2021/06/09 07:27:14;;;;;;;9.57;8.70;;;23.10;97.30;;;;;;6097270;23;20065;-78
2021/06/09 07:29:44;;;;;;;11.10;9.98;;;23.50;97.00;;;;;;6093856;23;20026;-79
2021/06/09 07:32:12;;;;;;;10.43;9.43;;;22.80;97.90;;;;;;6043433;23;20027;-79
2021/06/09 07:34:41;;;;;;;9.52;8.63;;;22.20;99.90;;;;;;6064129;23;20030;-79
2021/06/09 07:37:13;;;;;;;8.43;7.63;;;22.70;99.10;;;;;;6102534;23;20022;-80
2021/06/09 07:39:49;;;;;;;9.30;8.32;;;22.80;99.90;;;;;;6064642;23;20026;-79
2021/06/09 07:42:19;;;;;;;10.23;9.23;;;23.50;97.90;;;;;;6042018;23;20429;-80
2021/06/09 07:44:59;;;;;;;11.30;9.23;;;25.70;95.60;;;;;;6066878;23;20500;-79
2021/06/09 07:47:29;;;;;;;10.20;9.05;;;26.00;92.80;;;;;;6040287;23;20029;-79
2021/06/09 07:49:58;;;;;;;12.25;9.98;;;24.30;95.10;;;;;;6090365;23;20038;-79
2021/06/09 07:52:27;;;;;;;9.10;8.15;;;23.00;97.70;;;;;;6087865;23;20030;-79
2021/06/09 07:54:57;;;;;;;9.63;8.73;;;22.40;98.90;;;;;;6067207;23;20025;-79
2021/06/09 07:57:29;;;;;;;11.63;9.75;;;22.10;99.90;;;;;;6090006;23;20026;-80
2021/06/09 07:59:58;;;;;;;13.27;10.48;;;21.40;99.00;;;;;;6099789;23;20346;-78
2021/06/09 08:02:26;;;;;;;10.63;9.52;;;21.20;99.90;;;;;;6064777;23;20022;-79
2021/06/09 08:04:55;;;;;;;14.65;10.60;;;21.30;99.90;;;;;;6087454;23;20033;-79
2021/06/09 08:07:24;;;;;;;12.70;10.07;;;20.90;99.90;;;;;;6090700;23;20472;-81
2021/06/09 08:09:54;;;;;;;11.80;10.57;;;20.60;99.90;;;;;;6063649;23;20474;-79
2021/06/09 08:12:23;;;;;;;11.48;10.27;;;20.20;99.90;;;;;;6098569;23;20313;-80
2021/06/09 08:14:51;;;;;;;16.70;12.70;;;20.10;99.90;;;;;;6091774;23;20025;-79
2021/06/09 08:17:22;;;;;;;13.02;11.07;;;20.20;99.90;;;;;;6043354;23;20034;-80
2021/06/09 08:19:50;;;;;;;15.13;11.80;;;20.60;99.90;;;;;;6064993;23;20029;-79
2021/06/09 08:22:18;;;;;;;11.73;10.45;;;21.00;99.90;;;;;;6066059;23;20034;-81
2021/06/09 08:24:46;;;;;;;11.85;10.73;;;21.20;99.90;;;;;;6065896;23;20031;-79
2021/06/09 08:27:15;;;;;;;19.08;12.55;;;20.80;99.90;;;;;;6067574;23;20218;-79
2021/06/09 08:29:43;;;;;;;14.50;12.82;;;20.50;99.90;;;;;;6065865;23;20033;-80
2021/06/09 08:32:11;;;;;;;13.18;9.95;;;20.70;99.90;;;;;;6100641;23;20022;-79
2021/06/09 08:34:39;;;;;;;13.88;12.38;;;20.70;99.90;;;;;;6100158;23;20018;-78
2021/06/09 08:37:06;;;;;;;13.05;11.25;;;20.40;99.90;;;;;;6097053;23;20033;-80
2021/06/09 08:39:34;;;;;;;14.85;12.27;;;20.30;99.90;;;;;;6066530;23;20031;-78
2021/06/09 08:42:04;;;;;;;13.40;12.00;;;20.40;99.90;;;;;;6090593;23;20030;-79
2021/06/09 08:44:38;;;;;;;11.90;10.70;;;20.40;99.90;;;;;;6098755;23;20030;-81
2021/06/09 08:47:08;;;;;;;14.02;12.10;;;20.60;99.90;;;;;;6090614;23;20022;-79
2021/06/09 08:49:37;;;;;;;13.35;11.93;;;20.80;99.90;;;;;;6064522;23;20030;-80
2021/06/09 08:52:09;;;;;;;11.85;10.02;;;20.90;99.90;;;;;;6101048;23;20029;-79
2021/06/09 08:54:46;;;;;;;13.95;9.52;;;21.10;99.90;;;;;;6066247;23;20022;-79
2021/06/09 08:57:16;;;;;;;10.25;9.10;;;20.90;99.90;;;;;;6090991;23;20033;-78
2021/06/09 08:59:44;;;;;;;10.50;9.48;;;21.00;99.90;;;;;;6065572;23;20234;-80
2021/06/09 09:02:13;;;;;;;11.52;9.98;;;21.10;99.90;;;;;;6089690;23;20033;-79
2021/06/09 09:04:42;;;;;;;9.68;8.75;;;21.30;99.90;;;;;;6040652;23;20042;-79
2021/06/09 09:07:10;;;;;;;12.73;10.07;;;21.50;99.90;;;;;;6091480;23;20023;-79
2021/06/09 09:09:39;;;;;;;12.80;10.57;;;21.60;99.90;;;;;;6094801;23;20037;-79
2021/06/09 09:12:08;;;;;;;17.50;9.25;;;21.50;99.90;;;;;;6065026;23;20045;-79
2021/06/09 09:14:36;;;;;;;11.38;9.30;;;21.40;99.90;;;;;;6065840;23;20019;-79
2021/06/09 09:17:12;;;;;;;9.13;8.23;;;21.30;99.90;;;;;;6042091;23;20022;-78
2021/06/09 09:19:42;;;;;;;11.07;9.77;;;21.50;99.90;;;;;;6089616;23;20325;-79
2021/06/09 09:22:16;;;;;;;9.10;8.07;;;21.60;99.90;;;;;;6042250;23;20046;-79
2021/06/09 09:24:50;;;;;;;9.27;8.32;;;21.50;99.90;;;;;;6089658;23;20476;-80
2021/06/09 09:27:31;;;;;;;8.02;7.30;;;21.60;99.90;;;;;;6090731;23;20022;-80
2021/06/09 09:30:07;;;;;;;;;;;21.50;99.90;;;;;;6089351;23;20029;-79
2021/06/09 09:32:37;;;;;;;12.25;9.73;;;21.50;99.90;;;;;;6091007;23;19928;-79
2021/06/09 09:35:11;;;;;;;12.95;8.35;;;21.70;99.90;;;;;;6074262;23;20025;-80
2021/06/09 09:37:40;;;;;;;9.45;8.45;;;21.70;99.90;;;;;;6065639;23;20455;-79
2021/06/09 09:40:16;;;;;;;13.23;9.18;;;21.80;99.90;;;;;;6089913;23;20497;-79
2021/06/09 09:42:47;;;;;;;11.88;10.05;;;21.70;99.70;;;;;;6041919;23;20026;-78
2021/06/09 09:45:27;;;;;;;10.55;9.35;;;21.80;99.90;;;;;;6088426;23;20033;-80
2021/06/09 09:48:07;;;;;;;10.68;9.60;;;21.80;99.60;;;;;;6090124;23;20029;-78
2021/06/09 09:50:51;;;;;;;9.32;8.38;;;21.90;99.90;;;;;;6062153;23;20462;-79
2021/06/09 09:53:31;;;;;;;11.05;7.35;;;21.90;99.60;;;;;;6090816;23;20018;-78
2021/06/09 09:56:02;;;;;;;11.43;10.40;;;21.70;99.00;;;;;;6100996;23;20476;-79
2021/06/09 09:58:30;;;;;;;;;;;21.70;99.30;;;;;;6066749;23;20360;-79
2021/06/09 10:01:18;;;;;;;12.05;7.28;;;21.90;99.90;;;;;;6095685;23;19929;-79
2021/06/09 10:03:48;;;;;;;9.15;8.25;;;21.80;99.90;;;;;;6064055;23;20023;-78
2021/06/09 10:06:25;;;;;;;9.35;8.43;;;21.90;99.60;;;;;;6065201;23;20029;-84
2021/06/09 10:08:55;;;;;;;10.85;9.52;;;22.20;97.50;;;;;;6063938;23;20481;-79
2021/06/09 10:11:24;;;;;;;10.63;7.57;;;22.50;99.10;;;;;;6090002;23;20914;-79
2021/06/09 10:13:53;;;;;;;11.13;9.65;;;22.40;98.90;;;;;;6092641;23;20045;-80
2021/06/09 10:16:21;;;;;;;9.30;8.45;;;22.30;99.10;;;;;;6098951;23;20019;-81
2021/06/09 10:19:08;;;;;;;11.30;8.45;;;22.30;96.70;;;;;;6100114;23;20030;-79
2021/06/09 10:21:46;;;;;;;10.45;9.32;;;22.30;99.00;;;;;;6041402;23;20026;-78
2021/06/09 10:24:15;;;;;;;10.85;9.75;;;22.20;99.90;;;;;;6097108;23;20027;-79
2021/06/09 10:26:51;;;;;;;11.65;8.80;;;22.30;98.60;;;;;;6090493;23;20025;-78
2021/06/09 10:29:22;;;;;;;11.07;9.98;;;22.40;99.90;;;;;;6064204;23;20034;-79
2021/06/09 10:32:02;;;;;;;8.80;7.85;;;22.60;99.10;;;;;;6074585;23;20030;-81
2021/06/09 10:34:35;;;;;;;9.70;8.75;;;22.80;98.30;;;;;;6062495;23;20387;-79
2021/06/09 10:37:06;;;;;;;11.50;9.35;;;22.80;96.20;;;;;;6096019;23;20458;-79
2021/06/09 10:39:38;;;;;;;10.80;9.80;;;22.80;98.10;;;;;;6075581;23;20038;-78
2021/06/09 10:42:13;;;;;;;10.68;9.57;;;22.70;99.60;;;;;;6091437;23;20033;-79
2021/06/09 10:44:44;;;;;;;12.48;11.30;;;22.70;99.40;;;;;;6097311;23;20425;-80
2021/06/09 10:47:17;;;;;;;14.18;9.30;;;22.70;98.90;;;;;;6065523;23;20022;-79
2021/06/09 10:49:46;;;;;;;10.38;8.85;;;22.90;98.00;;;;;;6039602;23;20035;-79
2021/06/09 10:52:14;;;;;;;10.48;9.02;;;23.00;97.20;;;;;;6040594;23;20343;-79
2021/06/09 10:54:46;;;;;;;10.85;9.15;;;23.00;96.00;;;;;;6089438;23;20467;-81
2021/06/09 10:57:15;;;;;;;9.65;8.75;;;23.10;97.50;;;;;;6065473;23;20022;-77
2021/06/09 10:59:43;;;;;;;10.32;8.98;;;23.20;97.00;;;;;;6040962;23;20022;-78
2021/06/09 11:02:16;;;;;;;17.40;10.13;;;23.10;97.10;;;;;;6089009;23;20026;-80
2021/06/09 11:04:50;;;;;;;8.70;7.88;;;23.20;97.30;;;;;;6095647;23;20026;-80
2021/06/09 11:07:27;;;;;;;8.52;7.70;;;23.20;95.60;;;;;;6100886;23;20033;-79
2021/06/09 11:09:57;;;;;;;13.73;7.63;;;23.20;95.10;;;;;;6063551;23;20458;-79
2021/06/09 11:12:29;;;;;;;9.32;7.38;;;23.10;93.70;;;;;;6098806;23;20019;-79
2021/06/09 11:15:09;;;;;;;8.32;7.22;;;23.10;94.80;;;;;;6100267;23;20029;-81
2021/06/09 11:17:53;;;;;;;9.25;8.43;;;23.00;96.90;;;;;;6089215;23;20478;-79
2021/06/09 11:20:32;;;;;;;8.27;7.47;;;23.20;95.60;;;;;;6070851;23;20502;-79
2021/06/09 11:23:12;;;;;;;12.20;7.25;;;23.00;94.00;;;;;;6099188;23;20457;-79
2021/06/09 11:25:46;;;;;;;8.00;6.18;;;22.60;94.50;;;;;;6091172;23;20034;-80
2021/06/09 11:28:19;;;;;;;7.90;5.65;;;22.40;95.60;;;;;;6098989;23;20334;-78
2021/06/09 11:30:57;;;;;;;8.73;6.97;;;22.30;94.40;;;;;;6065798;23;20026;-79
2021/06/09 11:33:48;;;;;;;7.65;6.65;;;22.30;94.10;;;;;;6069374;23;20322;-80
2021/06/09 11:36:19;;;;;;;;;;;22.30;95.20;;;;;;6042351;23;20464;-82
2021/06/09 11:38:54;;;;;;;7.63;7.03;;;22.50;96.40;;;;;;6091193;23;19925;-82
2021/06/09 11:41:34;;;;;;;7.95;7.20;;;22.80;93.00;;;;;;6040102;23;20034;-82
2021/06/09 11:44:03;;;;;;;8.38;7.05;;;22.90;96.50;;;;;;6041869;23;20022;-83
2021/06/09 11:46:37;;;;;;;7.95;7.10;;;22.90;94.90;;;;;;6065292;23;20309;-83
2021/06/09 11:49:11;;;;;;;7.80;6.95;;;22.60;93.70;;;;;;6041894;23;20034;-84
2021/06/09 11:51:56;;;;;;;11.55;7.90;;;22.40;94.10;;;;;;6066919;23;20029;-83
2021/06/09 11:54:33;;;;;;;8.18;6.45;;;22.20;94.70;;;;;;6066997;23;20346;-84
2021/06/09 11:57:18;;;;;;;8.35;7.68;;;22.10;95.10;;;;;;6066823;23;20026;-83
2021/06/09 12:00:06;;;;;;;11.57;7.35;;;22.20;97.40;;;;;;6090943;23;20025;-84
2021/06/09 12:02:34;;;;;;;17.25;8.35;;;22.60;93.50;;;;;;6041328;23;20034;-83
2021/06/09 12:05:03;;;;;;;8.35;7.65;;;22.80;94.70;;;;;;6095534;23;20037;-88
2021/06/09 12:07:33;;;;;;;9.25;8.35;;;23.10;97.60;;;;;;6023836;23;20042;-88
2021/06/09 12:10:09;;;;;;;7.72;7.03;;;23.40;97.10;;;;;;6046146;23;20030;-91
2021/06/09 12:12:38;;;;;;;7.72;7.10;;;23.60;97.60;;;;;;6022577;23;20085;-90
2021/06/09 12:15:11;;;;;;;6.68;6.07;;;23.70;92.30;;;;;;6046705;23;20356;-88
2021/06/09 12:17:41;;;;;;;9.18;6.18;;;23.30;95.20;;;;;;6044908;23;20037;-88
2021/06/09 12:20:18;;;;;;;8.45;7.28;;;23.10;96.30;;;;;;6020222;23;20022;-86
2021/06/09 12:22:55;;;;;;;8.63;7.47;;;22.90;93.30;;;;;;6069405;23;20023;-85
2021/06/09 12:25:31;;;;;;;9.63;7.65;;;22.60;93.70;;;;;;6044770;23;20053;-88
2021/06/09 12:28:09;;;;;;;8.85;7.85;;;22.50;93.90;;;;;;6104063;23;20015;-87
2021/06/09 12:30:46;;;;;;;8.48;6.43;;;22.40;93.70;;;;;;6066867;23;20046;-91
2021/06/09 12:33:32;;;;;;;7.80;7.07;;;22.30;94.70;;;;;;6022704;23;20597;-89
2021/06/09 12:36:00;;;;;;;9.52;6.88;;;22.40;93.90;;;;;;6044257;23;20480;-88
2021/06/09 12:38:28;;;;;;;8.82;7.47;;;22.80;93.80;;;;;;6079683;23;20022;-88
2021/06/09 12:40:56;;;;;;;8.70;6.15;;;23.10;91.80;;;;;;6043657;23;20486;-90
2021/06/09 12:43:24;;;;;;;7.75;6.32;;;23.20;93.20;;;;;;6093885;23;20019;-90
2021/06/09 12:45:52;;;;;;;14.50;6.50;;;23.20;94.10;;;;;;6067964;23;20026;-89
2021/06/09 12:48:21;;;;;;;7.68;6.97;;;23.10;95.40;;;;;;6068368;23;20014;-88
2021/06/09 12:50:55;;;;;;;10.93;8.15;;;22.90;94.50;;;;;;6102970;23;20454;-90
2021/06/09 12:53:29;;;;;;;8.10;7.30;;;22.80;95.20;;;;;;6021009;23;20034;-90
2021/06/09 12:56:00;;;;;;;8.07;7.38;;;22.70;94.70;;;;;;6079366;23;20037;-89
2021/06/09 12:58:30;;;;;;;8.18;7.32;;;22.50;94.30;;;;;;6043719;23;20030;-88
2021/06/09 13:01:07;;;;;;;12.25;7.63;;;22.40;94.20;;;;;;6098952;23;20026;-90